createdAt,value
2019-02-28T00:00:40.684Z,2.10
2019-02-28T00:03:08.448Z,2.10
2019-02-28T00:05:37.915Z,2.00
2019-02-28T00:08:04.795Z,2.00
2019-02-28T00:10:32.009Z,2.00
2019-02-28T00:12:59.123Z,2.10
2019-02-28T00:15:29.684Z,2.10
2019-02-28T00:17:55.517Z,2.20
2019-02-28T00:20:22.783Z,2.20
2019-02-28T00:22:49.935Z,2.20
2019-02-28T00:25:17.199Z,2.10
2019-02-28T00:27:44.446Z,2.00
2019-02-28T00:30:11.739Z,2.00
2019-02-28T00:32:38.895Z,2.00
2019-02-28T00:35:06.199Z,1.90
2019-02-28T00:37:33.458Z,1.90
2019-02-28T00:40:00.600Z,1.80
2019-02-28T00:42:27.955Z,1.70
2019-02-28T00:44:55.202Z,1.70
2019-02-28T00:47:22.454Z,1.60
2019-02-28T00:49:49.690Z,1.60
2019-02-28T00:52:16.943Z,1.60
2019-02-28T00:54:44.509Z,1.60
2019-02-28T00:57:11.860Z,1.60
2019-02-28T00:59:39.104Z,1.60
2019-02-28T01:02:06.348Z,1.60
2019-02-28T01:04:33.608Z,1.60
2019-02-28T01:07:00.836Z,1.60
2019-02-28T01:09:30.155Z,1.50
2019-02-28T01:11:57.134Z,1.60
2019-02-28T01:14:24.334Z,1.70
2019-02-28T01:16:52.999Z,1.70
2019-02-28T01:19:20.725Z,1.80
2019-02-28T01:21:48.031Z,1.90
2019-02-28T01:24:15.241Z,2.00
2019-02-28T01:26:43.401Z,2.10
2019-02-28T01:29:11.492Z,2.20
2019-02-28T01:31:38.733Z,2.40
2019-02-28T01:34:05.901Z,2.50
2019-02-28T01:36:33.033Z,2.50
2019-02-28T01:39:00.274Z,2.70
2019-02-28T01:41:27.628Z,2.70
2019-02-28T01:43:54.857Z,2.70
2019-02-28T01:46:22.077Z,2.70
2019-02-28T01:48:49.329Z,2.70
2019-02-28T01:51:16.572Z,2.70
2019-02-28T01:53:43.894Z,2.60
2019-02-28T01:56:11.154Z,2.50
2019-02-28T01:58:38.381Z,2.40
2019-02-28T02:01:05.603Z,2.30
2019-02-28T02:03:32.850Z,2.30
2019-02-28T02:05:59.989Z,2.30
2019-02-28T02:08:27.252Z,2.40
2019-02-28T02:10:55.969Z,2.50
2019-02-28T02:13:23.326Z,2.50
2019-02-28T02:15:51.412Z,2.40
2019-02-28T02:18:19.295Z,2.20
2019-02-28T02:20:46.417Z,2.10
2019-02-28T02:23:17.878Z,2.10
2019-02-28T02:25:42.741Z,2.00
2019-02-28T02:28:10.030Z,2.00
2019-02-28T02:30:37.285Z,1.90
2019-02-28T02:33:04.619Z,1.90
2019-02-28T02:35:31.949Z,2.00
2019-02-28T02:38:03.688Z,2.00
2019-02-28T02:40:28.428Z,2.00
2019-02-28T02:42:55.692Z,1.90
2019-02-28T02:45:22.806Z,1.80
2019-02-28T02:47:50.051Z,1.90
2019-02-28T02:50:17.311Z,1.80
2019-02-28T02:52:44.451Z,1.70
2019-02-28T02:55:11.921Z,1.60
2019-02-28T02:57:39.186Z,1.50
2019-02-28T03:00:13.332Z,1.50
2019-02-28T03:02:38.888Z,1.40
2019-02-28T03:05:06.363Z,1.30
2019-02-28T03:07:33.622Z,1.30
2019-02-28T03:10:00.855Z,1.30
2019-02-28T03:12:31.201Z,1.30
2019-02-28T03:14:57.148Z,1.30
2019-02-28T03:17:24.525Z,1.30
2019-02-28T03:19:51.709Z,1.30
2019-02-28T03:22:19.019Z,1.30
2019-02-28T03:24:50.717Z,1.30
2019-02-28T03:27:19.056Z,1.30
2019-02-28T03:29:44.874Z,1.40
2019-02-28T03:32:12.277Z,1.30
2019-02-28T03:34:39.531Z,1.30
2019-02-28T03:37:06.657Z,1.30
2019-02-28T03:39:33.778Z,1.30
2019-02-28T03:42:01.048Z,1.30
2019-02-28T03:44:28.269Z,1.30
2019-02-28T03:46:55.431Z,1.30
2019-02-28T03:49:22.695Z,1.20
2019-02-28T03:51:49.920Z,1.20
2019-02-28T03:54:17.068Z,1.10
2019-02-28T03:56:51.315Z,1.10
2019-02-28T03:59:18.208Z,1.00
2019-02-28T04:01:45.480Z,0.90
2019-02-28T04:04:12.516Z,0.90
2019-02-28T04:06:40.990Z,0.80
2019-02-28T04:09:09.012Z,0.80
2019-02-28T04:11:36.467Z,0.80
2019-02-28T04:14:03.726Z,0.70
2019-02-28T04:16:31.084Z,0.70
2019-02-28T04:18:58.321Z,0.60
2019-02-28T04:21:25.501Z,0.60
2019-02-28T04:23:52.712Z,0.60
2019-02-28T04:26:20.076Z,0.60
2019-02-28T04:28:53.254Z,0.50
2019-02-28T04:31:20.055Z,0.50
2019-02-28T04:33:45.471Z,0.50
2019-02-28T04:36:12.701Z,0.50
2019-02-28T04:38:39.847Z,0.40
2019-02-28T04:41:07.123Z,0.40
2019-02-28T04:43:34.343Z,0.40
2019-02-28T04:46:01.604Z,0.40
2019-02-28T04:48:28.840Z,0.40
2019-02-28T04:50:56.110Z,0.40
2019-02-28T04:53:23.406Z,0.40
2019-02-28T04:55:50.658Z,0.40
2019-02-28T04:58:17.826Z,0.40
2019-02-28T05:00:44.940Z,0.30
2019-02-28T05:03:12.086Z,0.30
2019-02-28T05:05:39.342Z,0.30
2019-02-28T05:08:06.471Z,0.30
2019-02-28T05:10:33.637Z,0.20
2019-02-28T05:13:00.769Z,0.20
2019-02-28T05:15:27.927Z,0.10
2019-02-28T05:17:55.848Z,0.10
2019-02-28T05:20:24.073Z,0.10
2019-02-28T05:22:51.319Z,0.10
2019-02-28T05:25:18.840Z,0.10
2019-02-28T05:27:46.183Z,0.10
2019-02-28T05:30:17.876Z,0.10
2019-02-28T05:32:42.587Z,0.10
2019-02-28T05:35:09.842Z,0.10
2019-02-28T05:37:36.991Z,0.10
2019-02-28T05:40:06.152Z,0.10
2019-02-28T05:42:34.114Z,0.20
2019-02-28T05:45:01.379Z,0.30
2019-02-28T05:47:29.361Z,0.40
2019-02-28T05:49:57.835Z,0.50
2019-02-28T05:52:25.079Z,0.60
2019-02-28T05:54:52.329Z,0.70
2019-02-28T05:57:19.574Z,1.00
2019-02-28T05:59:46.807Z,1.10
2019-02-28T06:02:14.078Z,1.30
2019-02-28T06:04:41.378Z,1.40
2019-02-28T06:07:09.450Z,1.50
2019-02-28T06:09:36.879Z,1.60
2019-02-28T06:12:06.672Z,1.70
2019-02-28T06:14:33.246Z,1.80
2019-02-28T06:17:00.486Z,1.80
2019-02-28T06:19:27.603Z,1.90
2019-02-28T06:21:56.394Z,2.10
2019-02-28T06:24:24.008Z,2.20
2019-02-28T06:26:51.234Z,2.40
2019-02-28T06:29:18.479Z,2.60
2019-02-28T06:31:48.656Z,2.80
2019-02-28T06:34:15.059Z,3.00
2019-02-28T06:36:42.204Z,3.00
2019-02-28T06:39:09.387Z,3.00
2019-02-28T06:41:39.963Z,3.10
2019-02-28T06:44:05.685Z,3.20
2019-02-28T06:46:32.861Z,3.30
2019-02-28T06:49:06.101Z,3.40
2019-02-28T06:51:29.259Z,3.60
2019-02-28T06:53:56.479Z,3.80
2019-02-28T06:56:23.754Z,3.90
2019-02-28T06:58:50.977Z,3.90
2019-02-28T07:01:19.271Z,4.10
2019-02-28T07:03:53.429Z,4.30
2019-02-28T07:06:16.470Z,4.70
2019-02-28T07:08:43.741Z,5.20
2019-02-28T07:11:10.987Z,6.00
2019-02-28T07:13:39.836Z,7.40
2019-02-28T07:16:07.204Z,9.30
2019-02-28T07:18:34.486Z,11.70
2019-02-28T07:21:01.635Z,13.30
2019-02-28T07:23:30.177Z,14.60
2019-02-28T07:25:57.949Z,15.80
2019-02-28T07:28:25.311Z,16.70
2019-02-28T07:30:52.572Z,18.30
2019-02-28T07:33:19.860Z,21.40
2019-02-28T07:35:47.127Z,24.00
2019-02-28T07:38:14.397Z,23.00
2019-02-28T07:40:41.647Z,22.30
2019-02-28T07:43:12.271Z,20.30
2019-02-28T07:45:38.224Z,17.70
2019-02-28T07:48:05.375Z,15.60
2019-02-28T07:50:32.657Z,14.30
2019-02-28T07:53:00.047Z,13.20
2019-02-28T07:55:30.352Z,12.60
2019-02-28T07:57:57.457Z,12.10
2019-02-28T08:00:24.718Z,11.80
2019-02-28T08:02:51.883Z,11.60
2019-02-28T08:05:19.168Z,11.60
2019-02-28T08:07:51.046Z,12.00
2019-02-28T08:10:16.761Z,12.30
2019-02-28T08:12:44.284Z,12.80
2019-02-28T08:15:21.120Z,14.40
2019-02-28T08:17:46.725Z,15.80
2019-02-28T08:20:14.286Z,17.50
2019-02-28T08:22:41.648Z,19.30
2019-02-28T08:25:09.735Z,20.70
2019-02-28T08:27:37.034Z,22.60
2019-02-28T08:30:06.733Z,24.50
2019-02-28T08:32:34.067Z,28.30
2019-02-28T08:35:01.382Z,29.10
2019-02-28T08:37:28.605Z,27.80
2019-02-28T08:39:59.350Z,28.30
2019-02-28T08:42:26.499Z,26.40
2019-02-28T08:44:58.141Z,25.00
2019-02-28T08:47:23.009Z,26.00
2019-02-28T08:49:50.301Z,26.50
2019-02-28T08:52:17.590Z,28.10
2019-02-28T08:54:44.951Z,30.70
2019-02-28T08:57:13.045Z,29.00
2019-02-28T08:59:40.374Z,27.80
2019-02-28T09:02:07.543Z,26.70
2019-02-28T09:04:40.952Z,24.10
2019-02-28T09:07:03.986Z,21.70
2019-02-28T09:09:31.684Z,20.20
2019-02-28T09:12:00.443Z,19.10
2019-02-28T09:14:27.698Z,18.80
2019-02-28T09:16:56.943Z,18.70
2019-02-28T09:19:24.097Z,18.40
2019-02-28T09:21:52.764Z,17.90
2019-02-28T09:24:20.594Z,17.60
2019-02-28T09:26:47.859Z,17.40
2019-02-28T09:29:18.389Z,17.40
2019-02-28T09:31:46.406Z,17.60
2019-02-28T09:34:13.643Z,17.80
2019-02-28T09:36:40.804Z,17.50
2019-02-28T09:39:08.086Z,17.00
2019-02-28T09:41:36.416Z,17.00
2019-02-28T09:44:04.768Z,16.90
2019-02-28T09:46:32.048Z,16.60
2019-02-28T09:48:59.976Z,16.30
2019-02-28T09:51:31.525Z,16.30
2019-02-28T09:53:56.568Z,16.30
2019-02-28T09:56:23.864Z,16.20
2019-02-28T09:58:51.150Z,16.40
2019-02-28T10:01:21.288Z,16.80
2019-02-28T10:03:52.214Z,17.40
2019-02-28T10:06:18.387Z,17.80
2019-02-28T10:08:45.783Z,18.60
2019-02-28T10:11:13.055Z,19.20
2019-02-28T10:13:40.216Z,19.50
2019-02-28T10:16:07.485Z,18.90
2019-02-28T10:18:35.515Z,18.20
2019-02-28T10:21:04.235Z,17.60
2019-02-28T10:23:31.476Z,17.40
2019-02-28T10:25:58.754Z,17.40
2019-02-28T10:28:26.009Z,17.60
2019-02-28T10:30:53.599Z,18.30
2019-02-28T10:33:20.841Z,19.40
2019-02-28T10:35:49.562Z,21.30
2019-02-28T10:38:16.860Z,23.40
2019-02-28T10:40:44.221Z,23.60
2019-02-28T10:43:12.118Z,24.10
2019-02-28T10:45:41.951Z,26.20
2019-02-28T10:48:09.681Z,28.10
2019-02-28T10:50:36.897Z,29.60
2019-02-28T10:53:05.685Z,29.80
2019-02-28T10:55:33.514Z,29.90
2019-02-28T10:58:00.934Z,30.20
2019-02-28T11:00:32.776Z,31.10
2019-02-28T11:02:59.934Z,31.90
2019-02-28T11:05:29.875Z,32.10
2019-02-28T11:07:57.642Z,31.30
2019-02-28T11:10:35.050Z,30.90
2019-02-28T11:12:58.921Z,30.20
2019-02-28T11:15:26.244Z,30.30
2019-02-28T11:17:53.432Z,31.40
2019-02-28T11:20:22.429Z,31.30
2019-02-28T11:22:50.177Z,30.50
2019-02-28T11:25:18.207Z,30.60
2019-02-28T11:27:45.607Z,29.70
2019-02-28T11:30:13.803Z,28.60
2019-02-28T11:32:41.025Z,28.60
2019-02-28T11:35:08.315Z,28.60
2019-02-28T11:37:35.751Z,27.30
2019-02-28T11:40:05.450Z,27.30
2019-02-28T11:42:32.925Z,28.00
2019-02-28T11:45:00.257Z,28.30
2019-02-28T11:47:27.520Z,28.00
2019-02-28T11:49:54.699Z,27.20
2019-02-28T11:52:24.501Z,28.10
2019-02-28T11:54:51.007Z,28.30
2019-02-28T11:57:20.570Z,27.50
2019-02-28T11:59:47.961Z,28.00
2019-02-28T12:02:15.198Z,28.30
2019-02-28T12:04:42.366Z,28.20
2019-02-28T12:07:11.767Z,27.80
2019-02-28T12:09:38.900Z,27.80
2019-02-28T12:12:07.310Z,27.70
2019-02-28T12:14:35.280Z,28.90
2019-02-28T12:17:02.560Z,29.50
2019-02-28T12:19:29.702Z,28.60
2019-02-28T12:21:56.958Z,28.40
2019-02-28T12:24:24.560Z,28.30
2019-02-28T12:26:52.526Z,28.60
2019-02-28T12:29:21.061Z,27.60
2019-02-28T12:31:48.386Z,27.60
2019-02-28T12:34:15.672Z,27.20
2019-02-28T12:36:42.914Z,27.50
2019-02-28T12:39:10.181Z,27.50
2019-02-28T12:41:37.528Z,27.20
2019-02-28T12:44:04.784Z,27.00
2019-02-28T12:46:32.723Z,26.50
2019-02-28T12:49:00.215Z,25.80
2019-02-28T12:51:27.365Z,25.30
2019-02-28T12:53:56.271Z,24.60
2019-02-28T12:56:23.666Z,24.40
2019-02-28T12:58:50.810Z,24.20
2019-02-28T13:01:18.089Z,23.90
2019-02-28T13:03:45.307Z,23.60
2019-02-28T13:06:12.583Z,23.60
2019-02-28T13:08:41.827Z,23.40
2019-02-28T13:11:09.772Z,23.20
2019-02-28T13:13:36.999Z,23.00
2019-02-28T13:16:04.413Z,23.00
2019-02-28T13:18:33.958Z,22.60
2019-02-28T13:21:01.087Z,22.00
2019-02-28T13:23:32.722Z,21.60
2019-02-28T13:26:00.003Z,21.40
2019-02-28T13:28:26.934Z,20.90
2019-02-28T13:30:54.300Z,20.70
2019-02-28T13:33:21.589Z,20.50
2019-02-28T13:35:48.982Z,20.10
2019-02-28T13:38:18.963Z,19.80
2019-02-28T13:40:45.996Z,19.70
2019-02-28T13:43:19.660Z,19.40
2019-02-28T13:45:42.637Z,19.10
2019-02-28T13:48:10.020Z,19.00
2019-02-28T13:50:37.330Z,18.80
2019-02-28T13:53:17.509Z,18.60
2019-02-28T13:55:35.678Z,18.40
2019-02-28T13:58:03.060Z,18.30
2019-02-28T14:00:31.448Z,18.20
2019-02-28T14:03:02.203Z,18.20
2019-02-28T14:05:29.502Z,18.10
2019-02-28T14:07:56.636Z,18.10
2019-02-28T14:10:23.913Z,18.00
2019-02-28T14:12:53.264Z,18.00
2019-02-28T14:15:26.052Z,18.00
2019-02-28T14:17:53.386Z,17.90
2019-02-28T14:20:20.701Z,17.80
2019-02-28T14:22:47.968Z,17.60
2019-02-28T14:25:18.424Z,17.50
2019-02-28T14:27:45.884Z,17.40
2019-02-28T14:30:13.315Z,17.40
2019-02-28T14:32:42.407Z,17.30
2019-02-28T14:35:09.843Z,17.40
2019-02-28T14:37:37.107Z,17.40
2019-02-28T14:40:06.898Z,17.40
2019-02-28T14:42:34.268Z,17.30
2019-02-28T14:45:03.990Z,17.20
2019-02-28T14:47:30.603Z,17.20
2019-02-28T14:49:57.852Z,17.10
2019-02-28T14:52:25.154Z,17.00
2019-02-28T14:54:52.383Z,16.90
2019-02-28T14:57:19.615Z,16.80
2019-02-28T14:59:46.887Z,16.70
2019-02-28T15:02:14.268Z,16.60
2019-02-28T15:04:42.811Z,16.40
2019-02-28T15:07:10.480Z,16.30
2019-02-28T15:09:37.724Z,16.10
2019-02-28T15:12:05.006Z,15.90
2019-02-28T15:14:32.293Z,15.90
2019-02-28T15:17:02.001Z,15.80
2019-02-28T15:19:28.695Z,15.70
2019-02-28T15:21:56.025Z,15.60
2019-02-28T15:24:23.200Z,15.60
2019-02-28T15:26:50.411Z,15.70
2019-02-28T15:29:20.192Z,15.80
2019-02-28T15:31:46.757Z,15.90
2019-02-28T15:34:13.911Z,16.10
2019-02-28T15:36:41.122Z,16.20
2019-02-28T15:39:08.268Z,16.20
2019-02-28T15:41:35.534Z,16.10
2019-02-28T15:44:02.790Z,15.80
2019-02-28T15:46:29.946Z,15.70
2019-02-28T15:48:57.075Z,15.60
2019-02-28T15:51:25.777Z,15.50
2019-02-28T15:53:53.390Z,15.40
2019-02-28T15:56:20.851Z,15.40
2019-02-28T15:58:48.195Z,15.30
2019-02-28T16:01:15.430Z,15.20
2019-02-28T16:03:42.639Z,15.00
2019-02-28T16:06:09.944Z,14.90
2019-02-28T16:08:37.241Z,14.70
2019-02-28T16:11:06.325Z,14.80
2019-02-28T16:13:33.611Z,14.70
2019-02-28T16:16:00.889Z,14.70
2019-02-28T16:18:28.057Z,14.60
2019-02-28T16:20:55.361Z,14.50
2019-02-28T16:23:23.519Z,14.50
2019-02-28T16:25:51.735Z,14.40
2019-02-28T16:28:19.091Z,14.30
2019-02-28T16:30:46.363Z,14.20
2019-02-28T16:33:13.595Z,14.20
2019-02-28T16:35:40.886Z,14.20
2019-02-28T16:38:10.105Z,14.10
2019-02-28T16:40:37.267Z,14.00
2019-02-28T16:43:04.437Z,13.90
2019-02-28T16:45:41.816Z,13.80
2019-02-28T16:48:09.219Z,13.60
2019-02-28T16:50:36.490Z,13.40
2019-02-28T16:53:04.381Z,13.30
2019-02-28T16:55:31.840Z,13.20
2019-02-28T16:57:59.375Z,13.10
2019-02-28T17:00:26.743Z,13.00
2019-02-28T17:02:53.965Z,12.90
2019-02-28T17:05:26.695Z,12.80
2019-02-28T17:07:50.360Z,12.90
2019-02-28T17:10:19.825Z,12.90
2019-02-28T17:13:05.117Z,12.80
2019-02-28T17:15:50.708Z,12.80
2019-02-28T17:18:21.596Z,12.70
2019-02-28T17:20:48.710Z,12.80
2019-02-28T17:23:15.995Z,12.90
2019-02-28T17:25:43.229Z,13.00
2019-02-28T17:28:25.200Z,12.90
2019-02-28T17:31:08.443Z,12.80
2019-02-28T17:33:36.132Z,12.80
2019-02-28T17:36:08.096Z,12.70
2019-02-28T17:38:37.158Z,12.60
2019-02-28T17:41:02.603Z,12.50
2019-02-28T17:43:30.040Z,12.50
2019-02-28T17:45:57.294Z,12.40
2019-02-28T17:48:48.789Z,12.40
2019-02-28T17:51:42.325Z,12.40
2019-02-28T17:54:50.523Z,12.30
2019-02-28T17:57:28.839Z,12.20
2019-02-28T18:00:16.219Z,12.10
2019-02-28T18:03:33.195Z,12.00
2019-02-28T18:06:47.395Z,12.00
2019-02-28T18:09:49.356Z,12.00
2019-02-28T18:13:04.056Z,11.90
2019-02-28T18:16:17.959Z,11.80
2019-02-28T18:19:21.643Z,11.80
2019-02-28T18:22:12.843Z,11.70
2019-02-28T18:25:03.651Z,11.80
2019-02-28T18:27:43.649Z,11.60
2019-02-28T18:31:04.858Z,11.60
2019-02-28T18:33:32.231Z,11.60
2019-02-28T18:35:59.388Z,11.50
2019-02-28T18:38:26.654Z,11.50
2019-02-28T18:40:53.899Z,11.50
2019-02-28T18:43:23.951Z,11.50
2019-02-28T18:45:50.326Z,11.50
2019-02-28T18:48:18.647Z,11.50
2019-02-28T18:50:45.905Z,11.40
2019-02-28T18:53:13.061Z,11.40
2019-02-28T18:55:40.288Z,11.40
2019-02-28T18:58:07.531Z,11.30
2019-02-28T19:00:34.779Z,11.10
2019-02-28T19:03:02.151Z,11.00
2019-02-28T19:05:29.404Z,11.00
2019-02-28T19:07:56.809Z,10.90
2019-02-28T19:10:24.009Z,10.80
2019-02-28T19:12:51.235Z,10.80
2019-02-28T19:15:18.538Z,10.80
2019-02-28T19:17:45.809Z,10.80
2019-02-28T19:20:13.054Z,10.80
2019-02-28T19:22:40.310Z,10.70
2019-02-28T19:25:07.768Z,10.70
2019-02-28T19:27:35.080Z,10.70
2019-02-28T19:30:02.313Z,10.60
2019-02-28T19:32:29.536Z,10.60
2019-02-28T19:34:56.807Z,10.60
2019-02-28T19:37:24.198Z,10.60
2019-02-28T19:39:51.350Z,10.60
2019-02-28T19:42:18.580Z,10.60
2019-02-28T19:44:45.902Z,10.60
2019-02-28T19:47:13.178Z,10.70
2019-02-28T19:49:40.562Z,10.80
2019-02-28T19:52:07.830Z,10.90
2019-02-28T19:54:35.118Z,10.90
2019-02-28T19:57:02.319Z,10.80
2019-02-28T19:59:29.553Z,10.70
2019-02-28T20:01:56.828Z,10.50
2019-02-28T20:04:24.196Z,10.50
2019-02-28T20:06:51.585Z,10.30
2019-02-28T20:09:18.920Z,10.30
2019-02-28T20:11:46.272Z,10.20
2019-02-28T20:14:13.652Z,10.20
2019-02-28T20:16:40.923Z,10.10
2019-02-28T20:19:08.196Z,10.30
2019-02-28T20:21:35.956Z,10.10
2019-02-28T20:24:04.988Z,10.10
2019-02-28T20:26:32.284Z,10.20
2019-02-28T20:28:59.523Z,10.30
2019-02-28T20:31:26.823Z,10.20
2019-02-28T20:33:54.155Z,10.10
2019-02-28T20:36:21.446Z,10.00
2019-02-28T20:38:48.624Z,9.90
2019-02-28T20:41:15.827Z,9.80
2019-02-28T20:43:43.096Z,9.70
2019-02-28T20:46:10.421Z,9.70
2019-02-28T20:48:37.672Z,9.70
2019-02-28T20:51:04.954Z,9.60
2019-02-28T20:53:32.231Z,9.60
2019-02-28T20:56:00.961Z,9.50
2019-02-28T20:58:28.326Z,9.40
2019-02-28T21:00:55.588Z,9.30
2019-02-28T21:03:22.854Z,9.30
2019-02-28T21:05:50.140Z,9.30
2019-02-28T21:08:17.389Z,9.20
2019-02-28T21:10:44.557Z,9.20
2019-02-28T21:13:11.832Z,9.20
2019-02-28T21:15:38.977Z,9.20
2019-02-28T21:18:06.246Z,9.20
2019-02-28T21:20:33.385Z,9.10
2019-02-28T21:23:00.548Z,9.10
2019-02-28T21:25:27.993Z,9.00
2019-02-28T21:27:55.138Z,9.00
2019-02-28T21:30:22.410Z,8.90
2019-02-28T21:32:49.543Z,8.90
2019-02-28T21:35:17.244Z,8.80
2019-02-28T21:37:45.047Z,8.80
2019-02-28T21:40:13.396Z,8.80
2019-02-28T21:42:40.561Z,9.10
2019-02-28T21:45:11.662Z,9.30
2019-02-28T21:47:38.960Z,9.40
2019-02-28T21:50:08.323Z,9.40
2019-02-28T21:52:35.509Z,9.40
2019-02-28T21:55:03.128Z,9.40
2019-02-28T21:57:30.319Z,9.50
2019-02-28T21:59:57.604Z,9.60
2019-02-28T22:02:24.941Z,9.70
2019-02-28T22:04:52.169Z,9.90
2019-02-28T22:07:19.422Z,9.90
2019-02-28T22:09:46.546Z,9.90
2019-02-28T22:12:13.817Z,10.00
2019-02-28T22:14:40.988Z,10.10
2019-02-28T22:17:08.260Z,10.20
2019-02-28T22:19:35.461Z,10.20
2019-02-28T22:22:02.692Z,10.20
2019-02-28T22:24:29.865Z,10.10
2019-02-28T22:26:57.100Z,10.10
2019-02-28T22:29:24.336Z,10.00
2019-02-28T22:32:13.576Z,10.00
2019-02-28T22:34:55.334Z,10.10
2019-02-28T22:37:22.686Z,10.10
2019-02-28T22:39:49.996Z,10.10
2019-02-28T22:42:21.981Z,10.10
2019-02-28T22:44:46.193Z,10.10
2019-02-28T22:47:13.451Z,10.10
2019-02-28T22:49:40.672Z,10.00
2019-02-28T22:52:07.923Z,10.00
2019-02-28T22:54:35.060Z,10.00
2019-02-28T22:57:02.320Z,10.00
2019-02-28T22:59:29.580Z,10.00
2019-02-28T23:01:57.041Z,10.00
2019-02-28T23:04:24.186Z,10.00
2019-02-28T23:06:51.307Z,9.90
2019-02-28T23:09:18.543Z,9.90
2019-02-28T23:11:45.820Z,9.90
2019-02-28T23:14:13.065Z,9.90
2019-02-28T23:16:40.244Z,9.90
2019-02-28T23:19:07.476Z,9.80
2019-02-28T23:21:34.747Z,9.80
2019-02-28T23:24:02.028Z,9.80
2019-02-28T23:26:29.273Z,9.80
2019-02-28T23:29:12.659Z,9.80
2019-02-28T23:32:16.946Z,9.70
2019-02-28T23:34:47.529Z,9.70
2019-02-28T23:37:14.783Z,9.70
2019-02-28T23:39:42.030Z,9.60
2019-02-28T23:42:09.278Z,9.60
2019-02-28T23:44:36.449Z,9.60
2019-02-28T23:47:03.589Z,9.60
2019-02-28T23:49:30.822Z,9.50
2019-02-28T23:51:58.072Z,9.50
2019-02-28T23:54:25.345Z,9.40
2019-02-28T23:56:52.568Z,9.40
2019-02-28T23:59:19.835Z,9.40
